This is the latest recevied weather packets stored in our database for station/object KN6KS. If no packets are shown the sender has not sent any weather packets the latest 10 day(s).
| Time | Temp. | Humidity | Pressure | Rain* | Wind** | Luminosity | Snow |
|---|---|---|---|---|---|---|---|
| 1778004463 | 15° C | 54% | 1012.5 hPa | 0 mm | - | 258 W/m² | - |
| 1778004159 | 14.44° C | 55% | 1012.5 hPa | 0 mm | - | 193 W/m² | - |
| 1778003856 | 14.44° C | 56% | 1012.4 hPa | 0 mm | - | 161 W/m² | - |
| 1778003553 | 14.44° C | 55% | 1012.4 hPa | 0 mm | - | 199 W/m² | - |
| 1778003249 | 14.44° C | 55% | 1012.6 hPa | 0 mm | - | 447 W/m² | - |
| 1778002946 | 14.44° C | 55% | 1012.6 hPa | 0 mm | - | 215 W/m² | - |
| 1778002642 | 14.44° C | 55% | 1012.4 hPa | 0 mm | - | 235 W/m² | - |
| 1778002339 | 14.44° C | 55% | 1012.2 hPa | 0 mm | - | 496 W/m² | - |
| 1778002036 | 14.44° C | 56% | 1012.2 hPa | 0 mm | - | 216 W/m² | - |
| 1778001733 | 13.89° C | 56% | 1012.4 hPa | 0 mm | - | 832 W/m² | - |
| 1778001433 | 13.33° C | 57% | 1012.2 hPa | 0 mm | - | 749 W/m² | - |
| 1778001130 | 14.44° C | 56% | 1012.5 hPa | 0 mm | - | 255 W/m² | - |
| 1778000827 | 13.89° C | 57% | 1012.4 hPa | 0 mm | - | 830 W/m² | - |
| 1778000523 | 13.33° C | 58% | 1012.2 hPa | 0 mm | - | 247 W/m² | - |
| 1778000218 | 13.89° C | 56% | 1012.2 hPa | 0 mm | - | 421 W/m² | - |
| 1777999914 | 13.33° C | 58% | 1011.8 hPa | 0 mm | - | 212 W/m² | - |
| 1777999610 | 13.89° C | 58% | 1012.2 hPa | 0 mm | - | 236 W/m² | - |
| 1777999308 | 14.44° C | 55% | 1012.1 hPa | 0 mm | - | 443 W/m² | - |
| 1777999006 | 13.89° C | 57% | 1012.1 hPa | 0 mm | - | 569 W/m² | - |
| 1777998703 | 13.89° C | 58% | 1011.9 hPa | 0 mm | - | 699 W/m² | - |
| 1777998401 | 13.33° C | 59% | 1012.4 hPa | 0 mm | - | 366 W/m² | - |
| 1777998098 | 13.33° C | 59% | 1012 hPa | 0 mm | - | 597 W/m² | - |
| 1777997795 | 13.33° C | 60% | 1011.9 hPa | 0 mm | - | 607 W/m² | - |
| 1777997492 | 12.78° C | 60% | 1011.9 hPa | 0 mm | - | 599 W/m² | - |
| 1777997190 | 13.89° C | 59% | 1011.9 hPa | 0 mm | - | 587 W/m² | - |
* Rain latest hour (hover to see other rain measurements)
** Current wind speed in m/s (hover to see current wind gust speed)